sensor_id;sensor_type;location;lat;lon;timestamp;temperature;humidity
20512;DHT22;10414;52.074;5.126;2023-03-14T00:00:04;11.20;99.90
20512;DHT22;10414;52.074;5.126;2023-03-14T00:02:31;11.30;99.90
20512;DHT22;10414;52.074;5.126;2023-03-14T00:04:58;11.20;99.90
20512;DHT22;10414;52.074;5.126;2023-03-14T00:07:29;11.30;99.90
20512;DHT22;10414;52.074;5.126;2023-03-14T00:10:04;11.30;99.90
20512;DHT22;10414;52.074;5.126;2023-03-14T00:12:32;11.40;99.90
20512;DHT22;10414;52.074;5.126;2023-03-14T00:14:59;11.40;99.90
20512;DHT22;10414;52.074;5.126;2023-03-14T00:17:28;11.40;99.90
20512;DHT22;10414;52.074;5.126;2023-03-14T00:19:55;11.30;99.90
20512;DHT22;10414;52.074;5.126;2023-03-14T00:22:22;11.30;99.90
20512;DHT22;10414;52.074;5.126;2023-03-14T00:24:51;11.30;99.90
20512;DHT22;10414;52.074;5.126;2023-03-14T00:27:17;11.20;99.90
20512;DHT22;10414;52.074;5.126;2023-03-14T00:29:44;11.20;99.90
20512;DHT22;10414;52.074;5.126;2023-03-14T00:32:11;11.10;99.90
20512;DHT22;10414;52.074;5.126;2023-03-14T00:34:38;11.20;99.90
20512;DHT22;10414;52.074;5.126;2023-03-14T00:37:05;11.20;99.90
20512;DHT22;10414;52.074;5.126;2023-03-14T00:39:32;11.20;99.90
20512;DHT22;10414;52.074;5.126;2023-03-14T00:42:00;11.20;99.90
20512;DHT22;10414;52.074;5.126;2023-03-14T00:44:27;11.20;99.90
20512;DHT22;10414;52.074;5.126;2023-03-14T00:46:54;11.20;99.90
20512;DHT22;10414;52.074;5.126;2023-03-14T00:49:21;11.20;99.90
20512;DHT22;10414;52.074;5.126;2023-03-14T00:51:48;11.10;99.90
20512;DHT22;10414;52.074;5.126;2023-03-14T00:54:14;11.10;99.90
20512;DHT22;10414;52.074;5.126;2023-03-14T00:56:41;11.10;99.90
20512;DHT22;10414;52.074;5.126;2023-03-14T00:59:09;11.20;99.90
20512;DHT22;10414;52.074;5.126;2023-03-14T01:01:37;11.10;99.90
20512;DHT22;10414;52.074;5.126;2023-03-14T01:04:05;11.00;99.90
20512;DHT22;10414;52.074;5.126;2023-03-14T01:06:31;10.80;99.90
20512;DHT22;10414;52.074;5.126;2023-03-14T01:08:59;10.70;99.90
20512;DHT22;10414;52.074;5.126;2023-03-14T01:11:27;10.60;99.90
20512;DHT22;10414;52.074;5.126;2023-03-14T01:13:55;10.40;99.90
20512;DHT22;10414;52.074;5.126;2023-03-14T01:16:25;10.40;99.90
20512;DHT22;10414;52.074;5.126;2023-03-14T01:18:53;10.20;99.90
20512;DHT22;10414;52.074;5.126;2023-03-14T01:21:22;10.20;99.90
20512;DHT22;10414;52.074;5.126;2023-03-14T01:23:50;10.20;99.90
20512;DHT22;10414;52.074;5.126;2023-03-14T01:26:19;10.20;99.90
20512;DHT22;10414;52.074;5.126;2023-03-14T01:28:47;10.20;99.90
20512;DHT22;10414;52.074;5.126;2023-03-14T01:31:14;10.20;99.90
20512;DHT22;10414;52.074;5.126;2023-03-14T01:33:43;10.20;99.90
20512;DHT22;10414;52.074;5.126;2023-03-14T01:36:10;10.20;99.90
20512;DHT22;10414;52.074;5.126;2023-03-14T01:38:39;10.30;99.90
20512;DHT22;10414;52.074;5.126;2023-03-14T01:41:07;10.30;99.90
20512;DHT22;10414;52.074;5.126;2023-03-14T01:43:34;10.30;99.90
20512;DHT22;10414;52.074;5.126;2023-03-14T01:46:20;10.40;99.90
20512;DHT22;10414;52.074;5.126;2023-03-14T01:48:53;10.40;99.90
20512;DHT22;10414;52.074;5.126;2023-03-14T01:51:25;10.40;99.90
20512;DHT22;10414;52.074;5.126;2023-03-14T01:53:56;10.40;99.90
20512;DHT22;10414;52.074;5.126;2023-03-14T01:56:26;10.50;99.90
20512;DHT22;10414;52.074;5.126;2023-03-14T01:58:53;10.50;99.90
20512;DHT22;10414;52.074;5.126;2023-03-14T02:01:23;10.40;99.90
20512;DHT22;10414;52.074;5.126;2023-03-14T02:03:54;10.50;99.90
20512;DHT22;10414;52.074;5.126;2023-03-14T02:06:24;10.50;99.90
20512;DHT22;10414;52.074;5.126;2023-03-14T02:08:53;10.50;99.90
20512;DHT22;10414;52.074;5.126;2023-03-14T02:11:21;10.50;99.90
20512;DHT22;10414;52.074;5.126;2023-03-14T02:13:48;10.40;99.90
20512;DHT22;10414;52.074;5.126;2023-03-14T02:16:16;10.40;99.90
20512;DHT22;10414;52.074;5.126;2023-03-14T02:18:43;10.30;99.90
20512;DHT22;10414;52.074;5.126;2023-03-14T02:21:17;10.20;99.90
20512;DHT22;10414;52.074;5.126;2023-03-14T02:23:53;10.20;99.90
20512;DHT22;10414;52.074;5.126;2023-03-14T02:26:25;10.20;99.90
20512;DHT22;10414;52.074;5.126;2023-03-14T02:28:55;10.20;99.90
20512;DHT22;10414;52.074;5.126;2023-03-14T02:31:22;10.20;99.90
20512;DHT22;10414;52.074;5.126;2023-03-14T02:33:51;10.20;99.90
20512;DHT22;10414;52.074;5.126;2023-03-14T02:36:19;10.30;99.90
20512;DHT22;10414;52.074;5.126;2023-03-14T02:38:50;10.20;99.90
20512;DHT22;10414;52.074;5.126;2023-03-14T02:41:18;10.30;99.90
20512;DHT22;10414;52.074;5.126;2023-03-14T02:43:45;10.30;99.90
20512;DHT22;10414;52.074;5.126;2023-03-14T02:46:15;10.20;99.90
20512;DHT22;10414;52.074;5.126;2023-03-14T02:48:45;10.30;99.90
20512;DHT22;10414;52.074;5.126;2023-03-14T02:51:15;10.20;99.90
20512;DHT22;10414;52.074;5.126;2023-03-14T02:53:42;10.20;99.90
20512;DHT22;10414;52.074;5.126;2023-03-14T02:56:09;10.20;99.90
20512;DHT22;10414;52.074;5.126;2023-03-14T02:58:36;10.20;99.90
20512;DHT22;10414;52.074;5.126;2023-03-14T03:01:04;10.20;99.90
20512;DHT22;10414;52.074;5.126;2023-03-14T03:03:33;10.30;99.90
20512;DHT22;10414;52.074;5.126;2023-03-14T03:05:59;10.30;99.90
20512;DHT22;10414;52.074;5.126;2023-03-14T03:08:27;10.20;99.90
20512;DHT22;10414;52.074;5.126;2023-03-14T03:10:57;10.30;99.90
20512;DHT22;10414;52.074;5.126;2023-03-14T03:13:24;10.30;99.90
20512;DHT22;10414;52.074;5.126;2023-03-14T03:15:52;10.40;99.90
20512;DHT22;10414;52.074;5.126;2023-03-14T03:18:19;10.40;99.90
20512;DHT22;10414;52.074;5.126;2023-03-14T03:20:47;10.30;99.90
20512;DHT22;10414;52.074;5.126;2023-03-14T03:23:14;10.30;99.90
20512;DHT22;10414;52.074;5.126;2023-03-14T03:25:41;10.50;99.90
20512;DHT22;10414;52.074;5.126;2023-03-14T03:28:07;10.40;99.90
20512;DHT22;10414;52.074;5.126;2023-03-14T03:30:37;10.30;99.90
20512;DHT22;10414;52.074;5.126;2023-03-14T03:33:05;10.20;99.90
20512;DHT22;10414;52.074;5.126;2023-03-14T03:35:31;10.20;99.90
20512;DHT22;10414;52.074;5.126;2023-03-14T03:38:00;10.20;99.90
20512;DHT22;10414;52.074;5.126;2023-03-14T03:40:27;10.20;99.90
20512;DHT22;10414;52.074;5.126;2023-03-14T03:42:54;10.20;99.90
20512;DHT22;10414;52.074;5.126;2023-03-14T03:45:20;10.30;99.90
20512;DHT22;10414;52.074;5.126;2023-03-14T03:47:47;10.30;99.90
20512;DHT22;10414;52.074;5.126;2023-03-14T03:50:14;10.40;99.90
20512;DHT22;10414;52.074;5.126;2023-03-14T03:52:41;10.30;99.90
20512;DHT22;10414;52.074;5.126;2023-03-14T03:55:09;10.40;99.90
20512;DHT22;10414;52.074;5.126;2023-03-14T03:57:36;10.30;99.90
20512;DHT22;10414;52.074;5.126;2023-03-14T04:00:04;10.40;99.90
20512;DHT22;10414;52.074;5.126;2023-03-14T04:02:31;10.50;99.90
20512;DHT22;10414;52.074;5.126;2023-03-14T04:04:58;10.50;99.90
20512;DHT22;10414;52.074;5.126;2023-03-14T04:07:25;10.50;99.90
20512;DHT22;10414;52.074;5.126;2023-03-14T04:09:52;10.50;99.90
20512;DHT22;10414;52.074;5.126;2023-03-14T04:12:20;10.50;99.90
20512;DHT22;10414;52.074;5.126;2023-03-14T04:14:47;10.60;99.90
20512;DHT22;10414;52.074;5.126;2023-03-14T04:17:14;10.70;99.90
20512;DHT22;10414;52.074;5.126;2023-03-14T04:19:41;10.60;99.90
20512;DHT22;10414;52.074;5.126;2023-03-14T04:22:08;10.50;99.90
20512;DHT22;10414;52.074;5.126;2023-03-14T04:24:34;10.50;99.90
20512;DHT22;10414;52.074;5.126;2023-03-14T04:27:01;10.60;99.90
20512;DHT22;10414;52.074;5.126;2023-03-14T04:29:29;10.60;99.90
20512;DHT22;10414;52.074;5.126;2023-03-14T04:31:56;10.70;99.90
20512;DHT22;10414;52.074;5.126;2023-03-14T04:34:23;10.60;99.90
20512;DHT22;10414;52.074;5.126;2023-03-14T04:36:50;10.60;99.90
20512;DHT22;10414;52.074;5.126;2023-03-14T04:39:17;10.60;99.90
20512;DHT22;10414;52.074;5.126;2023-03-14T04:41:44;10.60;99.90
20512;DHT22;10414;52.074;5.126;2023-03-14T04:44:11;10.60;99.90
20512;DHT22;10414;52.074;5.126;2023-03-14T04:46:39;10.60;99.90
20512;DHT22;10414;52.074;5.126;2023-03-14T04:49:06;10.70;99.90
20512;DHT22;10414;52.074;5.126;2023-03-14T04:51:33;10.60;99.90
20512;DHT22;10414;52.074;5.126;2023-03-14T04:54:00;10.60;99.90
20512;DHT22;10414;52.074;5.126;2023-03-14T04:56:27;10.60;99.90
20512;DHT22;10414;52.074;5.126;2023-03-14T04:58:54;10.50;99.90
20512;DHT22;10414;52.074;5.126;2023-03-14T05:01:20;10.40;99.90
20512;DHT22;10414;52.074;5.126;2023-03-14T05:03:49;10.30;99.90
20512;DHT22;10414;52.074;5.126;2023-03-14T05:06:15;10.40;99.90
20512;DHT22;10414;52.074;5.126;2023-03-14T05:08:42;10.30;99.90
20512;DHT22;10414;52.074;5.126;2023-03-14T05:11:10;10.30;99.90
20512;DHT22;10414;52.074;5.126;2023-03-14T05:13:38;10.20;99.90
20512;DHT22;10414;52.074;5.126;2023-03-14T05:16:06;10.20;99.90
20512;DHT22;10414;52.074;5.126;2023-03-14T05:18:33;10.20;99.90
20512;DHT22;10414;52.074;5.126;2023-03-14T05:21:02;10.20;99.90
20512;DHT22;10414;52.074;5.126;2023-03-14T05:23:29;10.20;99.90
20512;DHT22;10414;52.074;5.126;2023-03-14T05:25:56;10.20;99.90
20512;DHT22;10414;52.074;5.126;2023-03-14T05:28:23;10.20;99.90
20512;DHT22;10414;52.074;5.126;2023-03-14T05:30:50;10.10;99.90
20512;DHT22;10414;52.074;5.126;2023-03-14T05:33:17;10.00;99.90
20512;DHT22;10414;52.074;5.126;2023-03-14T05:35:43;10.00;99.90
20512;DHT22;10414;52.074;5.126;2023-03-14T05:38:11;10.00;99.90
20512;DHT22;10414;52.074;5.126;2023-03-14T05:40:38;10.00;99.90
20512;DHT22;10414;52.074;5.126;2023-03-14T05:43:05;9.90;99.90
20512;DHT22;10414;52.074;5.126;2023-03-14T05:45:34;9.90;99.90
20512;DHT22;10414;52.074;5.126;2023-03-14T05:48:01;10.00;99.90
20512;DHT22;10414;52.074;5.126;2023-03-14T05:50:28;9.90;99.90
20512;DHT22;10414;52.074;5.126;2023-03-14T05:52:58;9.90;99.90
20512;DHT22;10414;52.074;5.126;2023-03-14T05:55:26;10.00;99.90
20512;DHT22;10414;52.074;5.126;2023-03-14T05:57:53;10.00;99.90
20512;DHT22;10414;52.074;5.126;2023-03-14T06:00:22;10.00;99.90
20512;DHT22;10414;52.074;5.126;2023-03-14T06:02:52;9.90;99.90
20512;DHT22;10414;52.074;5.126;2023-03-14T06:05:19;9.90;99.90
20512;DHT22;10414;52.074;5.126;2023-03-14T06:07:46;9.90;99.90
20512;DHT22;10414;52.074;5.126;2023-03-14T06:10:13;9.90;99.90
20512;DHT22;10414;52.074;5.126;2023-03-14T06:12:42;10.00;99.90
20512;DHT22;10414;52.074;5.126;2023-03-14T06:15:10;9.90;99.90
20512;DHT22;10414;52.074;5.126;2023-03-14T06:17:37;9.90;99.90
20512;DHT22;10414;52.074;5.126;2023-03-14T06:20:04;9.90;99.90
20512;DHT22;10414;52.074;5.126;2023-03-14T06:22:31;9.70;99.90
20512;DHT22;10414;52.074;5.126;2023-03-14T06:24:59;9.50;99.90
20512;DHT22;10414;52.074;5.126;2023-03-14T06:27:29;9.30;99.90
20512;DHT22;10414;52.074;5.126;2023-03-14T06:29:58;9.10;99.90
20512;DHT22;10414;52.074;5.126;2023-03-14T06:32:28;9.00;99.90
20512;DHT22;10414;52.074;5.126;2023-03-14T06:34:56;8.90;99.90
20512;DHT22;10414;52.074;5.126;2023-03-14T06:37:27;8.80;99.90
20512;DHT22;10414;52.074;5.126;2023-03-14T06:39:55;8.80;99.90
20512;DHT22;10414;52.074;5.126;2023-03-14T06:42:22;8.80;99.90
20512;DHT22;10414;52.074;5.126;2023-03-14T06:44:52;8.90;99.90
20512;DHT22;10414;52.074;5.126;2023-03-14T06:47:24;9.00;99.90
20512;DHT22;10414;52.074;5.126;2023-03-14T06:49:51;8.90;99.90
20512;DHT22;10414;52.074;5.126;2023-03-14T06:52:21;8.90;99.90
20512;DHT22;10414;52.074;5.126;2023-03-14T06:54:49;8.80;99.90
20512;DHT22;10414;52.074;5.126;2023-03-14T06:57:16;8.80;99.90
20512;DHT22;10414;52.074;5.126;2023-03-14T06:59:49;8.80;99.90
20512;DHT22;10414;52.074;5.126;2023-03-14T07:02:16;8.80;99.90
20512;DHT22;10414;52.074;5.126;2023-03-14T07:04:44;8.90;99.90
20512;DHT22;10414;52.074;5.126;2023-03-14T07:07:11;9.00;99.90
20512;DHT22;10414;52.074;5.126;2023-03-14T07:09:38;9.00;99.90
20512;DHT22;10414;52.074;5.126;2023-03-14T07:12:06;9.00;99.90
20512;DHT22;10414;52.074;5.126;2023-03-14T07:14:33;8.80;99.90
20512;DHT22;10414;52.074;5.126;2023-03-14T07:17:00;8.80;99.90
20512;DHT22;10414;52.074;5.126;2023-03-14T07:19:27;8.80;99.90
20512;DHT22;10414;52.074;5.126;2023-03-14T07:21:56;8.80;99.90
20512;DHT22;10414;52.074;5.126;2023-03-14T07:24:24;8.80;99.90
20512;DHT22;10414;52.074;5.126;2023-03-14T07:26:51;8.70;99.90
20512;DHT22;10414;52.074;5.126;2023-03-14T07:29:18;8.60;99.90
20512;DHT22;10414;52.074;5.126;2023-03-14T07:31:59;8.70;99.90
20512;DHT22;10414;52.074;5.126;2023-03-14T07:34:29;8.60;99.90
20512;DHT22;10414;52.074;5.126;2023-03-14T07:36:58;8.50;99.90
20512;DHT22;10414;52.074;5.126;2023-03-14T07:39:28;8.70;99.90
20512;DHT22;10414;52.074;5.126;2023-03-14T07:42:01;8.80;99.90
20512;DHT22;10414;52.074;5.126;2023-03-14T07:44:28;8.90;99.90
20512;DHT22;10414;52.074;5.126;2023-03-14T07:46:56;8.80;99.90
20512;DHT22;10414;52.074;5.126;2023-03-14T07:49:27;8.80;99.90
20512;DHT22;10414;52.074;5.126;2023-03-14T07:51:54;8.60;99.90
20512;DHT22;10414;52.074;5.126;2023-03-14T07:54:28;8.50;99.90
20512;DHT22;10414;52.074;5.126;2023-03-14T07:56:59;8.70;99.90
20512;DHT22;10414;52.074;5.126;2023-03-14T07:59:27;8.80;99.90
20512;DHT22;10414;52.074;5.126;2023-03-14T08:01:55;8.80;99.90
20512;DHT22;10414;52.074;5.126;2023-03-14T08:04:22;8.70;99.90
20512;DHT22;10414;52.074;5.126;2023-03-14T08:06:49;8.60;99.90
20512;DHT22;10414;52.074;5.126;2023-03-14T08:09:19;8.50;99.90
20512;DHT22;10414;52.074;5.126;2023-03-14T08:11:53;8.50;99.90
20512;DHT22;10414;52.074;5.126;2023-03-14T08:14:20;8.10;99.90
20512;DHT22;10414;52.074;5.126;2023-03-14T08:16:57;7.80;99.90
20512;DHT22;10414;52.074;5.126;2023-03-14T08:19:25;7.50;99.90
20512;DHT22;10414;52.074;5.126;2023-03-14T08:21:55;7.40;99.90
20512;DHT22;10414;52.074;5.126;2023-03-14T08:24:26;7.40;99.90
20512;DHT22;10414;52.074;5.126;2023-03-14T08:27:11;7.00;99.90
20512;DHT22;10414;52.074;5.126;2023-03-14T08:30:01;6.90;99.90
20512;DHT22;10414;52.074;5.126;2023-03-14T08:32:40;6.80;99.90
20512;DHT22;10414;52.074;5.126;2023-03-14T08:35:11;6.80;99.90
20512;DHT22;10414;52.074;5.126;2023-03-14T08:37:40;7.00;99.90
20512;DHT22;10414;52.074;5.126;2023-03-14T08:40:16;7.00;99.90
20512;DHT22;10414;52.074;5.126;2023-03-14T08:42:47;7.10;99.90
20512;DHT22;10414;52.074;5.126;2023-03-14T08:45:15;7.00;99.90
20512;DHT22;10414;52.074;5.126;2023-03-14T08:47:43;6.90;99.90
20512;DHT22;10414;52.074;5.126;2023-03-14T08:50:11;7.20;99.90
20512;DHT22;10414;52.074;5.126;2023-03-14T08:52:38;7.40;99.90
20512;DHT22;10414;52.074;5.126;2023-03-14T08:55:07;7.80;99.90
20512;DHT22;10414;52.074;5.126;2023-03-14T08:57:37;8.60;99.90
20512;DHT22;10414;52.074;5.126;2023-03-14T09:00:07;9.00;99.90
20512;DHT22;10414;52.074;5.126;2023-03-14T09:02:39;8.60;99.90
20512;DHT22;10414;52.074;5.126;2023-03-14T09:05:16;8.30;99.90
20512;DHT22;10414;52.074;5.126;2023-03-14T09:07:44;8.10;99.90
20512;DHT22;10414;52.074;5.126;2023-03-14T09:10:29;8.30;99.90
20512;DHT22;10414;52.074;5.126;2023-03-14T09:12:57;8.50;99.90
20512;DHT22;10414;52.074;5.126;2023-03-14T09:15:42;8.50;99.90
20512;DHT22;10414;52.074;5.126;2023-03-14T09:18:10;8.30;99.90
20512;DHT22;10414;52.074;5.126;2023-03-14T09:20:41;8.30;99.90
20512;DHT22;10414;52.074;5.126;2023-03-14T09:23:11;8.10;99.90
20512;DHT22;10414;52.074;5.126;2023-03-14T09:25:39;8.20;99.90
20512;DHT22;10414;52.074;5.126;2023-03-14T09:28:07;8.10;99.90
20512;DHT22;10414;52.074;5.126;2023-03-14T09:30:43;7.90;99.90
20512;DHT22;10414;52.074;5.126;2023-03-14T09:33:17;7.60;99.90
20512;DHT22;10414;52.074;5.126;2023-03-14T09:35:58;7.70;99.90
20512;DHT22;10414;52.074;5.126;2023-03-14T09:38:33;7.70;99.90
20512;DHT22;10414;52.074;5.126;2023-03-14T09:41:21;7.70;99.90
20512;DHT22;10414;52.074;5.126;2023-03-14T09:43:58;7.50;99.90
20512;DHT22;10414;52.074;5.126;2023-03-14T09:46:29;7.60;99.90
20512;DHT22;10414;52.074;5.126;2023-03-14T09:48:57;7.60;99.90
20512;DHT22;10414;52.074;5.126;2023-03-14T09:51:35;7.40;99.90
20512;DHT22;10414;52.074;5.126;2023-03-14T09:54:05;7.40;99.90
20512;DHT22;10414;52.074;5.126;2023-03-14T09:56:33;7.40;99.90
20512;DHT22;10414;52.074;5.126;2023-03-14T09:59:11;7.80;99.90
20512;DHT22;10414;52.074;5.126;2023-03-14T10:01:44;8.30;99.90
20512;DHT22;10414;52.074;5.126;2023-03-14T10:04:17;8.20;99.90
20512;DHT22;10414;52.074;5.126;2023-03-14T10:06:49;7.90;99.90
20512;DHT22;10414;52.074;5.126;2023-03-14T10:09:20;7.80;99.90
20512;DHT22;10414;52.074;5.126;2023-03-14T10:11:59;7.90;99.90
20512;DHT22;10414;52.074;5.126;2023-03-14T10:14:51;7.90;99.90
20512;DHT22;10414;52.074;5.126;2023-03-14T10:17:29;7.60;99.90
20512;DHT22;10414;52.074;5.126;2023-03-14T10:22:53;7.60;99.90
20512;DHT22;10414;52.074;5.126;2023-03-14T10:25:28;7.80;99.90
20512;DHT22;10414;52.074;5.126;2023-03-14T10:27:57;8.20;99.90
20512;DHT22;10414;52.074;5.126;2023-03-14T10:30:44;8.30;99.90
20512;DHT22;10414;52.074;5.126;2023-03-14T10:34:12;8.70;99.90
20512;DHT22;10414;52.074;5.126;2023-03-14T10:36:58;8.70;99.90
20512;DHT22;10414;52.074;5.126;2023-03-14T10:39:42;9.20;99.90
20512;DHT22;10414;52.074;5.126;2023-03-14T10:42:20;9.40;99.90
20512;DHT22;10414;52.074;5.126;2023-03-14T10:44:51;9.70;99.90
20512;DHT22;10414;52.074;5.126;2023-03-14T10:47:23;10.10;99.90
20512;DHT22;10414;52.074;5.126;2023-03-14T10:49:52;10.00;99.90
20512;DHT22;10414;52.074;5.126;2023-03-14T10:52:22;9.50;99.90
20512;DHT22;10414;52.074;5.126;2023-03-14T10:54:54;9.10;99.90
20512;DHT22;10414;52.074;5.126;2023-03-14T10:57:25;7.90;99.90
20512;DHT22;10414;52.074;5.126;2023-03-14T11:00:02;7.10;99.90
20512;DHT22;10414;52.074;5.126;2023-03-14T11:02:58;7.00;99.90
20512;DHT22;10414;52.074;5.126;2023-03-14T11:05:33;7.40;99.90
20512;DHT22;10414;52.074;5.126;2023-03-14T11:08:06;7.80;99.90
20512;DHT22;10414;52.074;5.126;2023-03-14T11:10:38;8.20;99.90
20512;DHT22;10414;52.074;5.126;2023-03-14T11:13:15;8.60;99.90
20512;DHT22;10414;52.074;5.126;2023-03-14T11:15:55;8.90;99.90
20512;DHT22;10414;52.074;5.126;2023-03-14T11:21:34;9.60;99.90
20512;DHT22;10414;52.074;5.126;2023-03-14T11:24:14;10.10;99.90
20512;DHT22;10414;52.074;5.126;2023-03-14T11:26:50;10.40;99.90
20512;DHT22;10414;52.074;5.126;2023-03-14T11:29:24;10.20;99.90
20512;DHT22;10414;52.074;5.126;2023-03-14T11:31:57;10.30;99.90
20512;DHT22;10414;52.074;5.126;2023-03-14T11:34:29;10.70;99.90
20512;DHT22;10414;52.074;5.126;2023-03-14T11:37:06;10.80;99.90
20512;DHT22;10414;52.074;5.126;2023-03-14T11:39:39;10.10;99.90
20512;DHT22;10414;52.074;5.126;2023-03-14T11:42:11;9.50;99.90
20512;DHT22;10414;52.074;5.126;2023-03-14T11:44:43;9.70;99.90
20512;DHT22;10414;52.074;5.126;2023-03-14T11:47:21;10.70;99.90
20512;DHT22;10414;52.074;5.126;2023-03-14T11:49:51;11.50;99.90
20512;DHT22;10414;52.074;5.126;2023-03-14T11:52:25;11.20;99.90
20512;DHT22;10414;52.074;5.126;2023-03-14T11:54:58;11.30;99.90
20512;DHT22;10414;52.074;5.126;2023-03-14T11:57:27;11.40;99.90
20512;DHT22;10414;52.074;5.126;2023-03-14T11:59:58;11.60;99.90
20512;DHT22;10414;52.074;5.126;2023-03-14T12:02:35;11.40;99.90
20512;DHT22;10414;52.074;5.126;2023-03-14T12:05:30;11.40;99.90
20512;DHT22;10414;52.074;5.126;2023-03-14T12:08:22;11.10;99.90
20512;DHT22;10414;52.074;5.126;2023-03-14T12:10:54;11.10;99.90
20512;DHT22;10414;52.074;5.126;2023-03-14T12:13:28;10.70;99.90
20512;DHT22;10414;52.074;5.126;2023-03-14T12:16:00;10.40;99.90
20512;DHT22;10414;52.074;5.126;2023-03-14T12:18:32;10.50;99.90
20512;DHT22;10414;52.074;5.126;2023-03-14T12:21:01;10.60;99.90
20512;DHT22;10414;52.074;5.126;2023-03-14T12:23:37;10.80;99.90
20512;DHT22;10414;52.074;5.126;2023-03-14T12:26:17;10.50;99.90
20512;DHT22;10414;52.074;5.126;2023-03-14T12:29:09;10.20;99.90
20512;DHT22;10414;52.074;5.126;2023-03-14T12:31:42;10.20;99.90
20512;DHT22;10414;52.074;5.126;2023-03-14T12:34:30;10.50;99.90
20512;DHT22;10414;52.074;5.126;2023-03-14T12:37:14;10.20;99.90
20512;DHT22;10414;52.074;5.126;2023-03-14T12:40:03;10.10;99.90
20512;DHT22;10414;52.074;5.126;2023-03-14T12:42:45;9.90;99.90
20512;DHT22;10414;52.074;5.126;2023-03-14T12:45:27;10.00;99.90
20512;DHT22;10414;52.074;5.126;2023-03-14T12:48:11;10.20;99.90
20512;DHT22;10414;52.074;5.126;2023-03-14T12:50:43;10.20;99.90
20512;DHT22;10414;52.074;5.126;2023-03-14T12:56:25;10.30;99.90
20512;DHT22;10414;52.074;5.126;2023-03-14T12:59:18;10.10;99.90
20512;DHT22;10414;52.074;5.126;2023-03-14T13:01:53;9.80;99.90
20512;DHT22;10414;52.074;5.126;2023-03-14T13:04:27;9.80;99.90
20512;DHT22;10414;52.074;5.126;2023-03-14T13:07:00;9.70;99.90
20512;DHT22;10414;52.074;5.126;2023-03-14T13:09:52;9.60;99.90
20512;DHT22;10414;52.074;5.126;2023-03-14T13:12:27;9.30;99.90
20512;DHT22;10414;52.074;5.126;2023-03-14T13:14:59;9.20;99.90
20512;DHT22;10414;52.074;5.126;2023-03-14T13:17:35;9.10;99.90
20512;DHT22;10414;52.074;5.126;2023-03-14T13:20:09;8.90;99.90
20512;DHT22;10414;52.074;5.126;2023-03-14T13:22:38;8.80;99.90
20512;DHT22;10414;52.074;5.126;2023-03-14T13:25:09;8.70;99.90
20512;DHT22;10414;52.074;5.126;2023-03-14T13:27:43;8.50;99.90
20512;DHT22;10414;52.074;5.126;2023-03-14T13:30:23;8.40;99.90
20512;DHT22;10414;52.074;5.126;2023-03-14T13:32:52;8.40;99.90
20512;DHT22;10414;52.074;5.126;2023-03-14T13:35:24;8.30;99.90
20512;DHT22;10414;52.074;5.126;2023-03-14T13:37:57;8.30;99.90
20512;DHT22;10414;52.074;5.126;2023-03-14T13:40:28;8.80;99.90
20512;DHT22;10414;52.074;5.126;2023-03-14T13:43:05;9.00;99.90
20512;DHT22;10414;52.074;5.126;2023-03-14T13:45:52;8.80;99.90
20512;DHT22;10414;52.074;5.126;2023-03-14T13:48:26;8.70;99.90
20512;DHT22;10414;52.074;5.126;2023-03-14T13:51:02;8.70;99.90
20512;DHT22;10414;52.074;5.126;2023-03-14T13:53:43;8.80;99.90
20512;DHT22;10414;52.074;5.126;2023-03-14T13:56:11;9.00;99.90
20512;DHT22;10414;52.074;5.126;2023-03-14T13:58:40;8.90;99.90
20512;DHT22;10414;52.074;5.126;2023-03-14T14:01:14;9.10;99.90
20512;DHT22;10414;52.074;5.126;2023-03-14T14:03:43;9.20;99.90
20512;DHT22;10414;52.074;5.126;2023-03-14T14:06:23;9.40;99.90
20512;DHT22;10414;52.074;5.126;2023-03-14T14:08:52;9.50;99.90
20512;DHT22;10414;52.074;5.126;2023-03-14T14:11:29;9.30;99.90
20512;DHT22;10414;52.074;5.126;2023-03-14T14:14:06;8.90;99.90
20512;DHT22;10414;52.074;5.126;2023-03-14T14:16:35;8.80;99.90
20512;DHT22;10414;52.074;5.126;2023-03-14T14:19:10;8.80;99.90
20512;DHT22;10414;52.074;5.126;2023-03-14T14:21:39;8.60;99.90
20512;DHT22;10414;52.074;5.126;2023-03-14T14:24:08;8.90;99.90
20512;DHT22;10414;52.074;5.126;2023-03-14T14:26:40;8.80;99.90
20512;DHT22;10414;52.074;5.126;2023-03-14T14:29:26;8.90;99.90
20512;DHT22;10414;52.074;5.126;2023-03-14T14:32:11;8.90;99.90
20512;DHT22;10414;52.074;5.126;2023-03-14T14:34:40;8.90;99.90
20512;DHT22;10414;52.074;5.126;2023-03-14T14:37:21;9.00;99.90
20512;DHT22;10414;52.074;5.126;2023-03-14T14:39:53;9.20;99.90
20512;DHT22;10414;52.074;5.126;2023-03-14T14:42:25;9.00;99.90
20512;DHT22;10414;52.074;5.126;2023-03-14T14:44:56;8.70;99.90
20512;DHT22;10414;52.074;5.126;2023-03-14T14:47:24;8.50;99.90
20512;DHT22;10414;52.074;5.126;2023-03-14T14:49:53;8.60;99.90
20512;DHT22;10414;52.074;5.126;2023-03-14T14:52:22;8.70;99.90
20512;DHT22;10414;52.074;5.126;2023-03-14T14:55:00;9.00;99.90
20512;DHT22;10414;52.074;5.126;2023-03-14T14:57:33;8.70;99.90
20512;DHT22;10414;52.074;5.126;2023-03-14T15:00:06;8.80;99.90
20512;DHT22;10414;52.074;5.126;2023-03-14T15:02:39;8.70;99.90
20512;DHT22;10414;52.074;5.126;2023-03-14T15:05:12;8.90;99.90
20512;DHT22;10414;52.074;5.126;2023-03-14T15:07:44;8.80;99.90
20512;DHT22;10414;52.074;5.126;2023-03-14T15:10:25;8.60;99.90
20512;DHT22;10414;52.074;5.126;2023-03-14T15:12:52;8.50;99.90
20512;DHT22;10414;52.074;5.126;2023-03-14T15:15:20;8.40;99.90
20512;DHT22;10414;52.074;5.126;2023-03-14T15:17:47;8.20;99.90
20512;DHT22;10414;52.074;5.126;2023-03-14T15:20:16;8.20;99.90
20512;DHT22;10414;52.074;5.126;2023-03-14T15:22:43;8.30;99.90
20512;DHT22;10414;52.074;5.126;2023-03-14T15:25:10;8.20;99.90
20512;DHT22;10414;52.074;5.126;2023-03-14T15:27:38;8.20;99.90
20512;DHT22;10414;52.074;5.126;2023-03-14T15:30:10;8.30;99.90
20512;DHT22;10414;52.074;5.126;2023-03-14T15:32:45;8.30;99.90
20512;DHT22;10414;52.074;5.126;2023-03-14T15:35:13;8.30;99.90
20512;DHT22;10414;52.074;5.126;2023-03-14T15:37:41;8.30;99.90
20512;DHT22;10414;52.074;5.126;2023-03-14T15:40:13;8.20;99.90
20512;DHT22;10414;52.074;5.126;2023-03-14T15:42:44;8.20;99.90
20512;DHT22;10414;52.074;5.126;2023-03-14T15:45:15;8.30;99.90
20512;DHT22;10414;52.074;5.126;2023-03-14T15:47:53;8.20;99.90
20512;DHT22;10414;52.074;5.126;2023-03-14T15:50:24;8.20;99.90
20512;DHT22;10414;52.074;5.126;2023-03-14T15:52:51;8.00;99.90
20512;DHT22;10414;52.074;5.126;2023-03-14T15:55:18;8.00;99.90
20512;DHT22;10414;52.074;5.126;2023-03-14T15:57:46;7.70;99.90
20512;DHT22;10414;52.074;5.126;2023-03-14T16:00:19;7.90;99.90
20512;DHT22;10414;52.074;5.126;2023-03-14T16:02:51;7.90;99.90
20512;DHT22;10414;52.074;5.126;2023-03-14T16:05:18;7.90;99.90
20512;DHT22;10414;52.074;5.126;2023-03-14T16:07:45;7.90;99.90
20512;DHT22;10414;52.074;5.126;2023-03-14T16:10:14;7.60;99.90
20512;DHT22;10414;52.074;5.126;2023-03-14T16:12:42;7.70;99.90